Sevier River / Vermillion Canal




Date Battery Voltage (V) Canal Stage above Flume (ft) Canal Stage below Flume (ft) Canal Flow (cfs) Canal Gate Height (%) River Stage at Dam (ft) River Flow at Dam (cfs) Pond Stage at Gate (ft) Canal Stage Offset (ft) River Stage below Dam (ft) River Flow below Dam (cfs) Submergence Mossing CFS Set (cfs) Gate Set (%) Auto CFS Auto Gate Gate Warning Settle Count Gate Up Total Gate Down Total
09/01/2018 12.91 0.37 -0.41 6.5 0.73 98 1.88 267.50
09/02/2018 12.90 0.37 -0.41 6.5 0.78 108 1.88 267.30
09/03/2018 12.90 0.37 -0.41 6.4 0.67 85 1.88 267.50
09/04/2018 12.91 0.36 -0.41 6.2 0.63 78 1.88 267.50
09/05/2018 12.94 0.34 -0.41 5.6 0.58 70 1.88 267.50
09/06/2018 12.89 0.45 -0.41 9.0 0.56 66 1.88 267.50
09/07/2018 12.90 0.54 -0.41 11.8 0.57 67 1.88 267.60
09/08/2018 12.94 0.53 -0.41 11.6 0.51 58 1.88 267.20
09/09/2018 12.90 0.52 -0.41 11.2 0.50 55 1.88 267.40
09/10/2018 12.92 0.51 -0.41 10.7 0.48 52 1.88 267.20
09/11/2018 12.94 0.48 -0.41 9.9 0.43 44 1.88 267.20
09/12/2018 12.97 0.50 -0.41 10.6 0.26 20 1.88 267.40
09/13/2018 13.00 0.53 -0.41 11.6 0.27 22 1.88 267.30
09/14/2018 12.97 0.52 -0.41 11.3 0.30 25 1.88 267.40
09/15/2018 12.95 0.52 -0.41 11.1 0.33 30 1.88 267.40
09/16/2018 12.96 0.50 -0.41 10.5 0.39 38 1.88 267.50
09/17/2018 12.94 0.50 -0.41 10.4 0.40 40 1.88 267.60
09/18/2018 12.95 0.50 -0.41 10.4 0.43 45 1.88 267.50
09/19/2018 12.99 0.49 -0.41 10.3 0.53 61 1.88 267.30
09/20/2018 12.99 0.48 -0.41 10.0 0.52 59 1.88 267.10
09/21/2018 12.98 0.51 -0.41 10.8 0.52 59 1.88 266.70
09/22/2018 12.96 0.53 -0.41 11.5 0.59 70 1.88 267.40
09/23/2018 13.00 0.51 -0.41 10.8 0.53 61 1.88 267.50
09/24/2018 12.99 0.48 -0.41 9.9 0.27 22 1.88 267.60
09/25/2018 13.02 0.47 -0.41 9.4 0.20 14 1.88 267.50
09/26/2018 13.01 0.45 -0.41 8.9 0.17 11 1.88 267.50
09/27/2018 12.98 0.50 -0.41 10.6 0.13 7 1.88 267.50
09/28/2018 12.95 0.54 -0.41 11.8 0.07 3 1.88 267.60
09/29/2018 12.97 0.54 -0.41 11.8 0.06 2 1.88 267.70
09/30/2018 13.00 0.54 -0.41 11.8 -0.01 0 1.88 267.60
Average 10.0 46 267.42 0.00
Maximum 11.8 108 267.70
Minimum 5.6 0 266.70
Total Volume (AF) 592.7 2,717 15,908.62 0.00